Time;durP1;ratioP1;P1;durP2;ratioP2;P2;SDS_P1;SDS_P2;PMS_P1;PMS_P2;Temp;Humidity;BMP_temperature;BMP_pressure;BME280_temperature;BME280_humidity;BME280_pressure;Samples;Min_cycle;Max_cycle;Signal;HPM_P1;HPM_P2
2021/10/16 00:01:24;;;;;;;16.27;7.32;;;9.00;99.90;;;;;;5050542;28;20571;-85
2021/10/16 00:03:52;;;;;;;16.23;5.93;;;9.00;99.90;;;;;;5055352;28;20051;-84
2021/10/16 00:06:23;;;;;;;12.38;5.25;;;8.90;99.90;;;;;;5066932;28;20047;-84
2021/10/16 00:09:40;;;;;;;15.63;4.93;;;8.90;99.90;;;;;;5035918;28;20041;-86
2021/10/16 00:12:22;;;;;;;17.58;5.30;;;8.80;99.90;;;;;;5025155;28;20065;-85
2021/10/16 00:14:58;;;;;;;15.85;6.60;;;8.80;99.90;;;;;;5060248;28;21444;-83
2021/10/16 00:17:28;;;;;;;13.20;6.10;;;8.80;99.90;;;;;;5048686;28;20063;-84
2021/10/16 00:20:05;;;;;;;15.70;6.13;;;8.80;99.90;;;;;;5033745;28;20049;-84
2021/10/16 00:22:39;;;;;;;14.00;6.30;;;8.80;99.90;;;;;;5024329;28;20049;-84
2021/10/16 00:25:11;;;;;;;14.60;7.25;;;8.70;99.90;;;;;;5021705;28;20048;-85
2021/10/16 00:27:59;;;;;;;17.00;7.28;;;8.70;99.90;;;;;;5043661;28;20049;-84
2021/10/16 00:30:46;;;;;;;22.23;7.13;;;8.70;99.90;;;;;;5027059;28;20063;-84
2021/10/16 00:33:17;;;;;;;13.43;5.93;;;8.70;99.90;;;;;;5050221;28;20080;-82
2021/10/16 00:35:50;;;;;;;17.67;7.65;;;8.60;99.90;;;;;;5062175;28;20057;-84
2021/10/16 00:38:27;;;;;;;19.55;7.70;;;8.60;99.90;;;;;;5068312;28;20053;-85
2021/10/16 00:40:59;;;;;;;15.13;6.47;;;8.60;99.90;;;;;;5051682;28;20060;-82
2021/10/16 00:43:32;;;;;;;20.90;7.63;;;8.60;99.90;;;;;;5048936;28;20052;-84
2021/10/16 00:46:03;;;;;;;23.02;6.60;;;8.60;99.90;;;;;;5047807;28;20053;-84
2021/10/16 00:48:33;;;;;;;18.73;6.78;;;8.50;99.90;;;;;;5033636;28;20056;-82
2021/10/16 00:51:03;;;;;;;25.20;8.95;;;8.50;99.90;;;;;;5067424;28;20045;-83
2021/10/16 00:53:36;;;;;;;16.98;7.07;;;8.50;99.90;;;;;;5022652;28;20062;-84
2021/10/16 00:56:09;;;;;;;18.75;6.90;;;8.40;99.90;;;;;;5053999;28;20045;-84
2021/10/16 00:58:40;;;;;;;22.40;8.05;;;8.40;99.90;;;;;;5033138;28;20063;-84
2021/10/16 01:01:12;;;;;;;19.13;6.47;;;8.40;99.90;;;;;;5032545;28;20055;-84
2021/10/16 01:03:43;;;;;;;15.27;5.90;;;8.30;99.90;;;;;;5048197;28;20053;-84
2021/10/16 01:06:17;;;;;;;13.93;6.25;;;8.40;99.90;;;;;;5059281;28;20049;-83
2021/10/16 01:08:49;;;;;;;19.30;7.68;;;8.40;99.90;;;;;;5054923;28;20059;-84
2021/10/16 01:11:50;;;;;;;25.50;8.50;;;8.40;99.90;;;;;;5034069;28;20059;-85
2021/10/16 01:14:24;;;;;;;20.63;8.30;;;8.40;99.90;;;;;;5031473;28;20408;-83
2021/10/16 01:16:56;;;;;;;33.22;9.48;;;8.50;99.90;;;;;;5050451;28;20048;-84
2021/10/16 01:19:34;;;;;;;18.88;7.95;;;8.40;99.90;;;;;;5028638;28;20076;-85
2021/10/16 01:22:11;;;;;;;23.52;8.73;;;8.40;99.90;;;;;;5060874;28;20041;-85
2021/10/16 01:24:45;;;;;;;17.48;6.93;;;8.40;99.90;;;;;;5042195;28;20045;-85
2021/10/16 01:27:24;;;;;;;18.30;6.63;;;8.40;99.90;;;;;;5045384;28;20049;-83
2021/10/16 01:29:55;;;;;;;18.45;7.45;;;8.50;99.90;;;;;;5065473;28;20052;-82
2021/10/16 01:32:26;;;;;;;29.55;8.77;;;8.50;99.90;;;;;;5052312;28;20032;-83
2021/10/16 01:35:04;;;;;;;13.02;5.82;;;8.50;99.90;;;;;;5047682;28;20053;-84
2021/10/16 01:37:41;;;;;;;15.20;5.70;;;9.50;99.90;;;;;;5037290;28;20049;-84
2021/10/16 01:40:13;;;;;;;12.95;7.65;;;8.50;99.90;;;;;;5048999;28;20300;-83
2021/10/16 01:42:46;;;;;;;21.90;9.48;;;8.50;99.90;;;;;;5049384;28;20045;-84
2021/10/16 01:45:19;;;;;;;18.60;7.15;;;8.80;99.90;;;;;;5033854;28;20048;-85
2021/10/16 01:48:14;;;;;;;15.30;7.68;;;8.60;99.90;;;;;;5025923;28;20049;-85
2021/10/16 01:50:43;;;;;;;17.35;5.72;;;8.50;99.90;;;;;;5032124;28;20417;-83
2021/10/16 01:53:20;;;;;;;18.17;7.93;;;8.60;99.90;;;;;;5045148;28;20044;-84
2021/10/16 01:55:58;;;;;;;16.55;9.32;;;8.70;99.90;;;;;;5037822;28;20076;-84
2021/10/16 01:58:37;;;;;;;16.13;6.78;;;8.70;99.90;;;;;;5051082;28;20041;-87
2021/10/16 02:01:18;;;;;;;20.02;6.97;;;8.80;99.90;;;;;;5047443;28;20128;-84
2021/10/16 02:03:51;;;;;;;24.35;7.80;;;9.10;99.90;;;;;;5015138;28;20574;-84
2021/10/16 02:06:30;;;;;;;14.43;6.22;;;9.00;99.90;;;;;;5030125;28;20372;-83
2021/10/16 02:09:05;;;;;;;15.50;6.55;;;8.90;99.90;;;;;;5036423;28;20467;-88
2021/10/16 02:11:35;;;;;;;21.48;6.90;;;8.90;99.90;;;;;;5034533;28;20051;-85
2021/10/16 02:14:11;;;;;;;11.80;6.03;;;8.90;99.90;;;;;;5041371;28;20037;-83
2021/10/16 02:16:50;;;;;;;;;;;8.90;99.90;;;;;;5042683;28;20041;-87
2021/10/16 02:19:28;;;;;;;23.00;7.32;;;8.80;99.90;;;;;;4997490;28;19924;-86
2021/10/16 02:21:58;;;;;;;29.27;8.38;;;8.80;99.90;;;;;;5025176;28;20056;-86
2021/10/16 02:24:29;;;;;;;16.17;7.32;;;8.70;99.90;;;;;;5042553;28;20061;-84
2021/10/16 02:26:58;;;;;;;14.82;7.38;;;8.70;99.90;;;;;;5053147;28;20045;-84
2021/10/16 02:29:28;;;;;;;16.23;7.00;;;8.60;99.90;;;;;;5063261;28;20527;-85
2021/10/16 02:32:06;;;;;;;15.18;6.38;;;8.60;99.90;;;;;;5013894;28;20061;-84
2021/10/16 02:34:41;;;;;;;15.23;6.32;;;8.50;99.90;;;;;;5027104;28;20061;-84
2021/10/16 02:37:16;;;;;;;14.05;6.90;;;8.50;99.90;;;;;;5043364;28;20053;-84
2021/10/16 02:39:52;;;;;;;17.83;6.72;;;8.50;99.90;;;;;;5040504;28;20045;-85
2021/10/16 02:42:21;;;;;;;15.82;5.72;;;8.40;99.90;;;;;;5042614;28;20041;-84
2021/10/16 02:44:54;;;;;;;23.23;6.93;;;8.70;99.90;;;;;;5009626;28;20042;-84
2021/10/16 02:47:30;;;;;;;14.90;7.32;;;8.40;99.90;;;;;;5024810;28;20048;-84
2021/10/16 02:50:01;;;;;;;18.65;8.60;;;8.40;99.90;;;;;;5007534;28;20057;-83
2021/10/16 02:52:35;;;;;;;16.45;7.15;;;8.40;99.90;;;;;;5044764;28;20401;-85
2021/10/16 02:55:07;;;;;;;18.90;7.10;;;8.80;99.90;;;;;;5028785;28;20053;-86
2021/10/16 02:57:53;;;;;;;21.25;7.53;;;8.20;99.90;;;;;;5031208;28;20405;-86
2021/10/16 03:00:22;;;;;;;14.02;7.43;;;8.70;99.90;;;;;;5044126;28;20041;-84
2021/10/16 03:03:09;;;;;;;18.40;6.32;;;8.30;99.90;;;;;;5051039;28;20063;-85
2021/10/16 03:05:40;;;;;;;17.38;7.15;;;9.00;99.90;;;;;;5045290;28;20041;-84
2021/10/16 03:08:19;;;;;;;;;;;9.10;99.90;;;;;;5047895;28;20054;-85
2021/10/16 03:10:56;;;;;;;12.85;5.85;;;8.10;99.90;;;;;;5027108;28;19921;-84
2021/10/16 03:13:37;;;;;;;20.42;6.60;;;8.10;99.90;;;;;;5027664;28;20038;-83
2021/10/16 03:16:25;;;;;;;13.43;6.80;;;8.10;99.90;;;;;;5045484;28;20045;-84
2021/10/16 03:18:59;;;;;;;16.48;6.43;;;8.00;99.90;;;;;;5039777;28;20064;-83
2021/10/16 03:21:27;;;;;;;13.98;6.25;;;8.00;99.90;;;;;;5040909;28;20436;-85
2021/10/16 03:23:56;;;;;;;22.33;6.50;;;9.00;99.90;;;;;;5027352;28;20050;-83
2021/10/16 03:26:29;;;;;;;10.93;5.93;;;8.00;99.90;;;;;;5026609;28;20047;-84
2021/10/16 03:28:58;;;;;;;10.98;5.80;;;8.00;99.90;;;;;;5023931;28;20068;-85
2021/10/16 03:31:29;;;;;;;14.00;6.18;;;8.00;99.90;;;;;;5037229;28;20040;-86
2021/10/16 03:33:58;;;;;;;18.38;5.93;;;7.90;99.90;;;;;;5045393;28;20045;-83
2021/10/16 03:36:31;;;;;;;12.98;4.72;;;8.00;99.90;;;;;;5040293;28;20052;-83
2021/10/16 03:39:04;;;;;;;12.65;5.65;;;7.90;99.90;;;;;;5024859;28;20060;-84
2021/10/16 03:41:38;;;;;;;19.42;8.20;;;8.10;99.90;;;;;;4995271;28;20049;-84
2021/10/16 03:44:08;;;;;;;30.52;6.80;;;8.10;99.90;;;;;;5042971;28;20049;-85
2021/10/16 03:46:44;;;;;;;13.70;6.25;;;9.30;99.90;;;;;;5011104;28;20054;-84
2021/10/16 03:49:21;;;;;;;13.32;5.05;;;7.90;99.90;;;;;;5005273;28;20077;-84
2021/10/16 03:51:49;;;;;;;14.93;5.78;;;8.00;99.90;;;;;;5039017;28;20056;-84
2021/10/16 03:54:20;;;;;;;12.13;6.03;;;7.90;99.90;;;;;;5042630;28;20049;-87
2021/10/16 03:56:52;;;;;;;26.65;6.20;;;8.50;99.90;;;;;;5034130;28;20053;-84
2021/10/16 03:59:24;;;;;;;13.90;6.07;;;7.90;99.90;;;;;;5024361;28;20061;-84
2021/10/16 04:01:54;;;;;;;17.02;5.70;;;8.10;99.90;;;;;;5026098;28;20049;-86
2021/10/16 04:04:24;;;;;;;15.30;6.15;;;7.90;99.90;;;;;;5054609;28;20064;-84
2021/10/16 04:06:55;;;;;;;14.60;5.55;;;7.90;99.90;;;;;;5031782;28;20046;-84
2021/10/16 04:09:24;;;;;;;17.73;5.35;;;8.00;99.90;;;;;;5025328;28;20049;-87
2021/10/16 04:12:03;;;;;;;15.55;5.28;;;8.90;99.90;;;;;;5040847;28;20050;-83
2021/10/16 04:14:34;;;;;;;14.00;6.00;;;8.10;99.90;;;;;;5011253;28;20050;-86
2021/10/16 04:17:06;;;;;;;15.05;6.15;;;8.10;99.90;;;;;;5043443;28;20076;-84
2021/10/16 04:19:34;;;;;;;12.82;7.32;;;8.10;99.90;;;;;;5060380;28;20503;-85
2021/10/16 04:22:10;;;;;;;13.43;6.85;;;8.10;99.90;;;;;;5038968;28;20057;-83
2021/10/16 04:24:39;;;;;;;17.15;6.60;;;8.10;99.90;;;;;;5039816;28;20064;-84
2021/10/16 04:27:37;;;;;;;14.10;5.97;;;8.90;99.90;;;;;;5055702;28;20041;-84
2021/10/16 04:30:20;;;;;;;19.38;6.35;;;8.10;99.90;;;;;;5023141;28;20049;-84
2021/10/16 04:32:52;;;;;;;14.88;5.50;;;8.20;99.90;;;;;;5040681;28;20042;-88
2021/10/16 04:35:20;;;;;;;21.63;7.32;;;8.20;99.90;;;;;;5023303;28;20057;-86
2021/10/16 04:37:49;;;;;;;19.67;7.55;;;8.20;99.90;;;;;;5014418;28;20061;-84
2021/10/16 04:40:20;;;;;;;13.55;6.05;;;8.30;99.90;;;;;;5033593;28;20045;-84
2021/10/16 04:42:53;;;;;;;19.10;6.97;;;8.30;99.90;;;;;;5025618;28;20408;-83
2021/10/16 04:45:24;;;;;;;13.63;5.55;;;8.40;99.90;;;;;;5040051;28;20041;-85
2021/10/16 04:47:58;;;;;;;14.63;6.03;;;8.40;99.90;;;;;;5009569;28;20046;-83
2021/10/16 04:50:32;;;;;;;18.60;7.65;;;8.90;99.90;;;;;;5028228;28;20056;-82
2021/10/16 04:53:00;;;;;;;12.85;5.60;;;8.50;99.90;;;;;;5014722;28;20041;-82
2021/10/16 04:55:42;;;;;;;14.23;5.85;;;8.50;99.90;;;;;;5029278;28;20049;-83
2021/10/16 04:58:14;;;;;;;20.25;6.80;;;8.60;99.90;;;;;;5026580;28;20041;-84
2021/10/16 05:00:48;;;;;;;15.00;5.90;;;8.60;99.90;;;;;;5006802;28;20521;-83
2021/10/16 05:03:31;;;;;;;14.68;6.20;;;8.70;99.90;;;;;;5039114;28;20045;-83
2021/10/16 05:06:09;;;;;;;10.15;5.38;;;8.70;99.90;;;;;;5049035;28;20057;-86
2021/10/16 05:08:41;;;;;;;17.63;6.95;;;9.30;99.90;;;;;;5038120;28;20037;-87
2021/10/16 05:11:09;;;;;;;19.58;9.23;;;8.70;99.90;;;;;;5036418;28;20058;-84
2021/10/16 05:13:43;;;;;;;18.20;6.10;;;9.10;99.90;;;;;;5035961;28;20060;-84
2021/10/16 05:16:23;;;;;;;13.25;5.78;;;8.60;99.90;;;;;;5020642;28;20388;-84
2021/10/16 05:18:51;;;;;;;15.38;6.43;;;9.00;99.90;;;;;;5023409;28;20060;-83
2021/10/16 05:21:20;;;;;;;19.50;7.53;;;8.70;99.90;;;;;;5023705;28;20053;-85
2021/10/16 05:23:49;;;;;;;8.20;4.68;;;8.70;99.90;;;;;;5040547;28;20508;-85
2021/10/16 05:26:17;;;;;;;12.40;5.82;;;8.60;99.90;;;;;;5044027;28;20044;-86
2021/10/16 05:28:47;;;;;;;17.42;6.18;;;8.70;99.90;;;;;;5044073;28;20056;-84
2021/10/16 05:31:17;;;;;;;;;;;8.70;99.90;;;;;;5061114;28;20491;-87
2021/10/16 05:33:54;;;;;;;21.52;6.50;;;8.70;99.90;;;;;;5027580;28;19920;-83
2021/10/16 05:36:27;;;;;;;15.13;6.65;;;8.70;99.90;;;;;;4996374;28;20045;-84
2021/10/16 05:39:02;;;;;;;13.90;5.38;;;10.10;99.90;;;;;;5046303;28;20064;-84
2021/10/16 05:41:35;;;;;;;15.10;6.20;;;8.70;99.90;;;;;;5028749;28;20068;-84
2021/10/16 05:44:06;;;;;;;17.60;8.05;;;9.00;99.90;;;;;;5050789;28;20041;-83
2021/10/16 05:46:36;;;;;;;17.63;8.05;;;8.80;99.90;;;;;;5015650;28;20049;-84
2021/10/16 05:49:08;;;;;;;17.15;7.38;;;8.80;99.90;;;;;;5029285;28;20047;-83
2021/10/16 05:51:39;;;;;;;16.50;5.37;;;8.90;99.90;;;;;;5060445;28;20057;-84
2021/10/16 05:54:13;;;;;;;12.57;6.60;;;8.90;99.90;;;;;;5025959;28;20045;-83
2021/10/16 05:56:41;;;;;;;19.13;5.38;;;8.90;99.90;;;;;;5020643;28;20046;-85
2021/10/16 05:59:13;;;;;;;20.92;7.65;;;8.90;99.90;;;;;;5023855;28;20392;-84
2021/10/16 06:01:42;;;;;;;14.30;5.95;;;9.00;99.90;;;;;;5041545;28;20056;-86
2021/10/16 06:04:15;;;;;;;16.92;6.65;;;9.00;99.90;;;;;;5038989;28;20586;-84
2021/10/16 06:06:42;;;;;;;13.82;5.82;;;9.00;99.90;;;;;;5021944;28;20053;-84
2021/10/16 06:09:11;;;;;;;11.88;5.00;;;9.10;99.90;;;;;;5022181;28;20048;-85
2021/10/16 06:11:42;;;;;;;18.50;6.03;;;9.10;99.90;;;;;;5038122;28;20045;-85
2021/10/16 06:14:13;;;;;;;17.73;7.00;;;9.00;99.90;;;;;;5056902;28;20041;-85
2021/10/16 06:16:42;;;;;;;14.35;5.18;;;8.90;99.90;;;;;;5011898;28;20053;-84
2021/10/16 06:19:11;;;;;;;19.60;6.30;;;9.60;99.90;;;;;;5029047;28;20062;-85
2021/10/16 06:21:40;;;;;;;29.85;10.38;;;9.00;99.90;;;;;;5008938;28;20037;-87
2021/10/16 06:24:09;;;;;;;17.83;5.88;;;9.10;99.90;;;;;;5039981;28;20052;-85
2021/10/16 06:26:48;;;;;;;15.90;5.63;;;9.00;99.90;;;;;;5007817;28;20046;-84
2021/10/16 06:29:16;;;;;;;13.20;5.90;;;10.30;99.90;;;;;;5009716;28;20535;-84
2021/10/16 06:31:47;;;;;;;40.67;9.05;;;9.00;99.90;;;;;;5035566;28;20053;-84
2021/10/16 06:34:20;;;;;;;13.23;6.10;;;9.00;99.90;;;;;;5010524;28;20050;-83
2021/10/16 06:36:52;;;;;;;15.10;6.40;;;9.10;99.90;;;;;;5013198;28;20068;-84
2021/10/16 06:39:23;;;;;;;16.50;5.15;;;9.10;99.90;;;;;;5030639;28;20053;-86
2021/10/16 06:42:01;;;;;;;17.45;6.38;;;9.10;99.90;;;;;;4996542;28;20049;-86
2021/10/16 06:45:05;;;;;;;13.05;5.82;;;9.20;99.90;;;;;;4992627;28;20058;-87
2021/10/16 06:47:45;;;;;;;19.20;7.32;;;9.20;99.90;;;;;;4996706;28;20076;-84
2021/10/16 06:50:33;;;;;;;16.88;6.63;;;9.40;99.90;;;;;;5029390;28;20044;-84
2021/10/16 06:53:07;;;;;;;14.60;6.88;;;9.40;99.90;;;;;;5010893;28;20068;-85
2021/10/16 06:55:44;;;;;;;18.05;8.82;;;9.30;99.90;;;;;;5028397;28;20520;-86
2021/10/16 06:58:15;;;;;;;16.57;6.03;;;9.30;99.90;;;;;;5053184;28;20049;-86
2021/10/16 07:00:55;;;;;;;16.67;5.00;;;9.40;99.90;;;;;;5014298;28;20054;-84
2021/10/16 07:03:45;;;;;;;13.48;6.03;;;9.40;99.90;;;;;;5028506;28;20053;-87
2021/10/16 07:06:16;;;;;;;13.30;5.25;;;9.40;99.90;;;;;;5011508;28;20057;-84
2021/10/16 07:08:45;;;;;;;;;;;9.50;99.90;;;;;;5015747;28;20056;-86
2021/10/16 07:11:31;;;;;;;16.98;7.72;;;10.10;99.90;;;;;;5047038;28;19936;-85
2021/10/16 07:14:01;;;;;;;10.75;4.65;;;9.50;99.90;;;;;;5009913;28;20045;-84
2021/10/16 07:16:56;;;;;;;20.25;6.40;;;9.50;99.90;;;;;;4995434;28;20065;-86
2021/10/16 07:19:28;;;;;;;11.25;5.20;;;9.50;99.90;;;;;;5019582;28;20495;-85
2021/10/16 07:22:07;;;;;;;12.77;5.32;;;9.60;99.90;;;;;;5048916;28;20052;-85
2021/10/16 07:24:53;;;;;;;17.55;5.38;;;9.60;99.90;;;;;;5029414;28;20057;-86
2021/10/16 07:27:29;;;;;;;22.02;7.32;;;9.50;99.90;;;;;;5053122;28;20054;-84
2021/10/16 07:30:16;;;;;;;17.20;6.30;;;9.70;99.90;;;;;;5064991;28;20045;-85
2021/10/16 07:32:52;;;;;;;15.57;5.97;;;9.70;99.90;;;;;;5063374;28;20053;-86
2021/10/16 07:35:21;;;;;;;17.60;7.60;;;9.80;99.90;;;;;;5028978;28;20044;-85
2021/10/16 07:37:54;;;;;;;15.05;5.75;;;9.90;99.90;;;;;;5063805;28;20055;-87
2021/10/16 07:40:29;;;;;;;14.65;6.85;;;9.90;99.90;;;;;;5041318;28;20047;-84
2021/10/16 07:43:13;;;;;;;13.98;6.35;;;9.70;99.90;;;;;;5048176;28;20060;-83
2021/10/16 07:45:45;;;;;;;14.23;6.10;;;10.00;99.90;;;;;;5027540;28;20049;-82
2021/10/16 07:48:22;;;;;;;16.40;6.68;;;10.00;99.90;;;;;;5062650;28;20053;-86
2021/10/16 07:50:57;;;;;;;16.08;6.15;;;10.10;99.90;;;;;;5046603;28;21295;-89
2021/10/16 07:53:35;;;;;;;12.73;5.57;;;10.10;99.90;;;;;;5044683;28;20065;-86
2021/10/16 07:56:06;;;;;;;23.50;5.60;;;10.10;99.90;;;;;;5028355;28;20040;-84
2021/10/16 07:58:39;;;;;;;17.50;7.53;;;10.20;99.90;;;;;;5046991;28;20072;-84
2021/10/16 08:01:17;;;;;;;11.00;5.35;;;10.10;99.90;;;;;;5016306;28;20053;-89
2021/10/16 08:03:47;;;;;;;18.63;6.95;;;10.20;99.90;;;;;;5050818;28;20060;-82
2021/10/16 08:06:15;;;;;;;20.58;6.38;;;10.00;99.90;;;;;;5038908;28;20047;-84
2021/10/16 08:08:51;;;;;;;15.57;6.63;;;10.20;99.90;;;;;;5037753;28;20293;-84
2021/10/16 08:11:45;;;;;;;10.23;5.22;;;10.30;99.90;;;;;;5021085;28;20638;-85
2021/10/16 08:14:22;;;;;;;14.88;7.43;;;10.30;99.90;;;;;;5061661;28;20052;-87
2021/10/16 08:17:02;;;;;;;15.60;6.28;;;10.40;99.90;;;;;;5035738;28;20055;-88
2021/10/16 08:19:43;;;;;;;12.93;5.57;;;10.40;99.90;;;;;;5028871;28;20055;-83
2021/10/16 08:22:15;;;;;;;16.52;8.05;;;10.40;99.90;;;;;;5025334;28;20491;-87
2021/10/16 08:24:46;;;;;;;17.63;6.50;;;10.50;99.90;;;;;;5034958;28;20057;-81
2021/10/16 08:27:16;;;;;;;18.30;6.57;;;10.50;99.90;;;;;;5027691;28;20057;-86
2021/10/16 08:29:44;;;;;;;12.88;6.00;;;10.60;99.90;;;;;;5045219;28;20034;-83
2021/10/16 08:32:15;;;;;;;20.00;6.43;;;10.70;99.90;;;;;;5039483;28;20116;-86
2021/10/16 08:34:48;;;;;;;37.88;7.25;;;10.70;99.90;;;;;;5036124;28;20053;-85
2021/10/16 08:37:42;;;;;;;18.65;6.85;;;10.80;99.90;;;;;;5024666;28;20056;-86
2021/10/16 08:40:28;;;;;;;15.18;5.43;;;10.80;99.90;;;;;;5038570;28;20488;-89
2021/10/16 08:43:13;;;;;;;24.30;6.57;;;11.00;99.90;;;;;;5044217;28;20560;-89
2021/10/16 08:45:47;;;;;;;16.75;5.35;;;10.90;99.90;;;;;;5038873;28;20417;-87
2021/10/16 08:48:16;;;;;;;18.40;8.40;;;11.00;99.90;;;;;;5024338;28;20067;-86
2021/10/16 08:50:50;;;;;;;23.10;7.05;;;11.90;99.90;;;;;;5043417;28;20049;-89
2021/10/16 08:53:21;;;;;;;21.00;5.47;;;11.10;99.90;;;;;;5043645;28;20067;-84
2021/10/16 08:55:54;;;;;;;33.75;7.63;;;9.90;99.90;;;;;;5025241;28;20049;-87
2021/10/16 08:58:28;;;;;;;18.63;8.27;;;11.30;99.90;;;;;;5043438;28;20039;-87
2021/10/16 09:01:02;;;;;;;47.67;9.38;;;11.30;99.90;;;;;;5027589;28;20041;-89
2021/10/16 09:03:46;;;;;;;47.58;8.07;;;11.70;99.90;;;;;;5011213;28;20049;-88
2021/10/16 09:06:30;;;;;;;24.30;10.15;;;11.50;99.90;;;;;;5039044;28;20045;-88
2021/10/16 09:09:03;;;;;;;24.38;6.78;;;11.60;99.90;;;;;;5033115;28;20059;-90
2021/10/16 09:11:40;;;;;;;27.55;7.72;;;11.60;99.90;;;;;;5023223;28;20049;-88
2021/10/16 09:14:16;;;;;;;18.70;6.57;;;11.70;99.90;;;;;;5019900;28;20053;-94
2021/10/16 09:16:45;;;;;;;19.33;6.88;;;11.80;99.90;;;;;;5036789;28;20045;-86
2021/10/16 09:19:19;;;;;;;18.77;6.28;;;11.90;99.90;;;;;;5050237;28;20045;-85
2021/10/16 09:21:55;;;;;;;11.52;4.95;;;12.00;99.90;;;;;;5061774;28;20057;-87
2021/10/16 09:24:31;;;;;;;19.98;6.88;;;12.30;99.90;;;;;;5043268;28;20060;-86
2021/10/16 09:27:10;;;;;;;17.42;5.72;;;12.10;99.90;;;;;;5024916;28;20064;-87
2021/10/16 09:29:53;;;;;;;15.02;6.35;;;12.10;99.90;;;;;;5055477;28;20037;-86
2021/10/16 09:32:24;;;;;;;23.65;6.32;;;12.20;99.90;;;;;;5017400;28;20499;-87
2021/10/16 09:35:04;;;;;;;14.88;5.85;;;12.30;99.90;;;;;;5057501;28;20491;-87
2021/10/16 09:37:49;;;;;;;14.80;5.60;;;12.30;99.90;;;;;;5057218;28;20044;-84
2021/10/16 09:40:40;;;;;;;13.48;4.32;;;12.40;99.90;;;;;;5055650;28;20052;-86
2021/10/16 09:43:22;;;;;;;13.07;3.88;;;12.40;99.90;;;;;;5035489;28;20037;-83
2021/10/16 09:46:14;;;;;;;10.75;3.25;;;12.50;99.90;;;;;;5035589;28;20049;-86
2021/10/16 09:48:44;;;;;;;16.70;4.15;;;12.50;99.90;;;;;;5037463;28;20304;-83
2021/10/16 09:51:21;;;;;;;14.32;3.53;;;12.60;99.90;;;;;;5035153;28;20392;-86
2021/10/16 09:54:05;;;;;;;10.73;3.28;;;12.60;99.90;;;;;;5051626;28;20040;-85
2021/10/16 09:56:36;;;;;;;12.55;3.60;;;12.70;99.90;;;;;;5033994;28;20068;-84
2021/10/16 09:59:08;;;;;;;12.27;4.28;;;12.70;99.90;;;;;;5052631;28;20044;-88
2021/10/16 10:01:39;;;;;;;11.18;4.47;;;12.70;99.90;;;;;;5015479;28;20056;-85
2021/10/16 10:04:11;;;;;;;28.75;4.93;;;12.70;99.90;;;;;;5034555;28;20590;-84
2021/10/16 10:06:41;;;;;;;10.32;2.78;;;12.70;99.90;;;;;;5036651;28;20049;-84
2021/10/16 10:09:10;;;;;;;14.75;4.75;;;12.80;99.90;;;;;;5017286;28;20067;-86
2021/10/16 10:11:39;;;;;;;19.23;5.35;;;12.80;99.90;;;;;;5020597;28;20049;-86
2021/10/16 10:14:19;;;;;;;18.17;6.43;;;12.80;99.90;;;;;;5020822;28;20049;-87
2021/10/16 10:16:59;;;;;;;13.57;5.43;;;12.80;99.90;;;;;;5020668;28;20277;-86
2021/10/16 10:19:35;;;;;;;18.27;5.13;;;12.80;99.90;;;;;;5026608;28;20044;-85
2021/10/16 10:22:17;;;;;;;22.83;5.63;;;12.80;99.90;;;;;;5040030;28;20045;-85
2021/10/16 10:24:53;;;;;;;14.85;5.20;;;12.80;99.90;;;;;;5052568;28;20056;-85
2021/10/16 10:27:44;;;;;;;14.85;5.38;;;12.80;99.90;;;;;;5009114;28;20048;-89
2021/10/16 10:30:46;;;;;;;13.20;4.38;;;12.80;99.90;;;;;;5039499;28;20159;-85
2021/10/16 10:33:25;;;;;;;16.08;4.70;;;12.70;99.90;;;;;;5009136;28;20144;-88
2021/10/16 10:36:06;;;;;;;12.02;5.78;;;12.70;99.90;;;;;;5042408;28;20099;-89
2021/10/16 10:38:42;;;;;;;14.70;3.95;;;12.70;99.90;;;;;;5056643;28;20388;-87
2021/10/16 10:41:26;;;;;;;17.05;5.65;;;12.70;99.90;;;;;;5017021;28;20052;-88
2021/10/16 10:43:55;;;;;;;17.00;5.95;;;12.80;99.90;;;;;;5031507;28;20049;-87
2021/10/16 10:46:28;;;;;;;9.60;4.55;;;12.70;99.90;;;;;;5033326;28;20529;-89
2021/10/16 10:49:10;;;;;;;14.95;4.88;;;12.70;99.90;;;;;;5014383;28;20472;-86
2021/10/16 10:51:38;;;;;;;13.73;4.72;;;12.70;99.90;;;;;;5030940;28;20037;-85
2021/10/16 10:54:17;;;;;;;16.42;5.65;;;12.70;99.90;;;;;;5028905;28;20075;-86
2021/10/16 10:56:52;;;;;;;16.13;6.10;;;12.70;99.90;;;;;;5018372;28;20444;-86
2021/10/16 10:59:21;;;;;;;20.92;5.78;;;12.80;99.90;;;;;;5026952;28;20048;-84
2021/10/16 11:02:01;;;;;;;24.00;8.73;;;12.80;99.90;;;;;;5008041;28;20053;-87
2021/10/16 11:04:45;;;;;;;21.55;5.38;;;12.80;99.90;;;;;;5027381;28;20484;-82
2021/10/16 11:07:46;;;;;;;13.80;6.15;;;12.90;99.90;;;;;;5025407;28;20040;-86
2021/10/16 11:10:16;;;;;;;16.45;5.03;;;12.90;99.90;;;;;;5050211;28;20037;-85
2021/10/16 11:12:44;;;;;;;19.88;4.97;;;13.00;99.90;;;;;;5052573;28;20355;-88
2021/10/16 11:15:13;;;;;;;14.18;4.82;;;13.00;99.90;;;;;;5046280;28;20052;-85
2021/10/16 11:17:44;;;;;;;25.15;5.10;;;13.10;99.90;;;;;;5043870;28;20042;-86
2021/10/16 11:20:29;;;;;;;15.20;5.18;;;13.20;99.90;;;;;;5027176;28;21289;-84
2021/10/16 11:22:59;;;;;;;16.35;5.07;;;13.30;99.90;;;;;;4992081;28;20050;-85
2021/10/16 11:25:32;;;;;;;15.93;5.30;;;13.40;99.90;;;;;;5035563;28;20045;-83
2021/10/16 11:28:06;;;;;;;39.60;7.97;;;13.50;99.90;;;;;;5032101;28;20316;-84
2021/10/16 11:30:39;;;;;;;22.83;6.07;;;13.60;99.90;;;;;;5025356;28;20045;-85
2021/10/16 11:33:16;;;;;;;15.77;7.18;;;13.70;99.90;;;;;;5026643;28;20052;-84
2021/10/16 11:35:49;;;;;;;17.60;6.60;;;13.80;99.90;;;;;;5026046;28;20052;-84
2021/10/16 11:38:23;;;;;;;17.10;5.00;;;13.90;99.90;;;;;;5015832;28;20045;-84
2021/10/16 11:40:54;;;;;;;19.50;6.28;;;14.00;99.90;;;;;;5029964;28;20057;-86
2021/10/16 11:43:45;;;;;;;13.40;5.60;;;14.10;99.90;;;;;;5033622;28;20049;-84
2021/10/16 11:46:22;;;;;;;13.82;4.55;;;14.10;99.90;;;;;;5050723;28;20309;-84
2021/10/16 11:48:52;;;;;;;12.13;4.90;;;14.20;99.90;;;;;;5037234;28;20042;-84
2021/10/16 11:51:28;;;;;;;19.52;5.75;;;14.20;99.90;;;;;;5041806;28;20045;-85
2021/10/16 11:54:00;;;;;;;16.50;4.93;;;14.30;99.90;;;;;;5040983;28;20033;-87
2021/10/16 11:56:31;;;;;;;14.18;5.57;;;14.40;99.90;;;;;;5046100;28;20040;-85
2021/10/16 11:59:00;;;;;;;16.35;5.57;;;14.60;99.90;;;;;;5018327;28;20061;-82
2021/10/16 12:01:30;;;;;;;15.68;5.07;;;14.70;99.90;;;;;;5031400;28;20037;-84
2021/10/16 12:04:01;;;;;;;27.80;7.75;;;14.80;99.90;;;;;;5038290;28;20049;-85
2021/10/16 12:06:38;;;;;;;14.95;5.03;;;14.90;99.90;;;;;;5016401;28;20053;-86
2021/10/16 12:09:12;;;;;;;18.70;5.43;;;15.00;99.90;;;;;;5029921;28;20050;-85
2021/10/16 12:11:44;;;;;;;13.15;7.05;;;15.10;99.90;;;;;;5028912;28;20049;-86
2021/10/16 12:14:20;;;;;;;17.45;5.57;;;15.20;99.90;;;;;;5017907;28;20049;-83
2021/10/16 12:16:54;;;;;;;15.43;5.65;;;15.30;99.90;;;;;;4998758;28;20050;-83
2021/10/16 12:19:26;;;;;;;13.60;6.07;;;15.30;99.90;;;;;;5035956;28;20303;-85
2021/10/16 12:22:07;;;;;;;15.25;6.30;;;15.30;99.90;;;;;;5030649;28;20058;-84
2021/10/16 12:24:38;;;;;;;15.35;5.07;;;15.40;99.90;;;;;;5015761;28;20052;-85
2021/10/16 12:27:10;;;;;;;18.48;5.68;;;15.40;99.90;;;;;;5031337;28;20052;-86
2021/10/16 12:29:46;;;;;;;15.43;5.57;;;15.60;99.90;;;;;;5012826;28;20396;-84
2021/10/16 12:32:15;;;;;;;17.13;5.80;;;15.70;99.90;;;;;;5014965;28;20049;-84
2021/10/16 12:34:50;;;;;;;;;;;15.80;99.90;;;;;;5030985;28;20049;-86
2021/10/16 12:37:19;;;;;;;12.25;5.57;;;15.90;99.90;;;;;;5036853;28;19936;-85
2021/10/16 12:39:50;;;;;;;16.75;5.88;;;15.90;99.90;;;;;;5032313;28;20044;-83
2021/10/16 12:42:22;;;;;;;16.85;7.18;;;16.00;99.90;;;;;;5024184;28;20056;-85
2021/10/16 12:45:08;;;;;;;21.48;6.13;;;16.10;99.90;;;;;;5041836;28;20041;-87
2021/10/16 12:47:38;;;;;;;13.38;5.55;;;16.20;99.90;;;;;;5044379;28;20045;-85
2021/10/16 12:50:08;;;;;;;15.00;6.65;;;16.20;99.90;;;;;;5036478;28;20051;-85
2021/10/16 12:52:43;;;;;;;11.77;5.07;;;16.30;99.90;;;;;;5052688;28;20052;-85
2021/10/16 12:55:14;;;;;;;18.02;6.65;;;16.40;99.90;;;;;;5030828;28;20060;-87
2021/10/16 12:58:01;;;;;;;14.30;6.43;;;16.40;99.90;;;;;;5030524;28;20061;-86
2021/10/16 13:00:32;;;;;;;9.95;4.72;;;16.50;99.90;;;;;;5032196;28;20048;-85
2021/10/16 13:03:00;;;;;;;18.08;5.30;;;16.50;99.90;;;;;;5036820;28;20041;-87
2021/10/16 13:05:29;;;;;;;18.40;6.30;;;16.40;99.90;;;;;;5040303;28;20044;-88
2021/10/16 13:07:59;;;;;;;20.80;6.28;;;16.30;99.90;;;;;;5016994;28;20516;-89
2021/10/16 13:10:28;;;;;;;11.32;5.00;;;16.30;99.90;;;;;;5017526;28;20500;-87
2021/10/16 13:12:58;;;;;;;12.27;5.53;;;16.20;99.90;;;;;;5003653;28;20503;-88
2021/10/16 13:15:28;;;;;;;15.00;5.55;;;16.30;99.90;;;;;;5014496;28;20056;-85
2021/10/16 13:18:01;;;;;;;14.30;5.60;;;16.40;99.90;;;;;;4688303;28;9999633;-88
2021/10/16 13:20:34;;;;;;;11.95;5.43;;;16.60;99.90;;;;;;5031248;28;20064;-84
2021/10/16 13:23:18;;;;;;;12.68;5.30;;;16.70;99.90;;;;;;5003048;28;20044;-86